Time;durP1;ratioP1;P1;durP2;ratioP2;P2;SDS_P1;SDS_P2;PMS_P1;PMS_P2;Temp;Humidity;BMP_temperature;BMP_pressure;BME280_temperature;BME280_humidity;BME280_pressure;Samples;Min_cycle;Max_cycle;Signal;HPM_P1;HPM_P2
2023/04/06 00:01:08;;;;;;;8.00;1.13;;;21.90;99.90;;;;;;5064128;28;20473;-62
2023/04/06 00:03:36;;;;;;;5.78;1.35;;;21.80;99.90;;;;;;5062567;28;20024;-62
2023/04/06 00:06:04;;;;;;;13.77;2.45;;;22.00;99.90;;;;;;5062136;28;20055;-62
2023/04/06 00:08:32;;;;;;;3.67;0.85;;;22.30;99.90;;;;;;5067607;28;20107;-63
2023/04/06 00:10:59;;;;;;;5.63;0.90;;;22.40;99.90;;;;;;5061350;28;20634;-63
2023/04/06 00:13:27;;;;;;;5.00;1.45;;;22.60;99.90;;;;;;5063238;28;20029;-64
2023/04/06 00:15:54;;;;;;;4.95;0.88;;;22.80;99.90;;;;;;5061135;28;20024;-64
2023/04/06 00:18:22;;;;;;;8.10;2.10;;;23.00;99.90;;;;;;5067315;28;20021;-64
2023/04/06 00:20:50;;;;;;;3.60;1.23;;;23.30;99.90;;;;;;5066292;28;20016;-64
2023/04/06 00:23:18;;;;;;;7.07;0.90;;;23.40;99.90;;;;;;5067197;28;20469;-63
2023/04/06 00:25:46;;;;;;;8.73;1.17;;;23.60;99.90;;;;;;5064970;28;20032;-64
2023/04/06 00:28:13;;;;;;;8.00;1.63;;;23.80;99.90;;;;;;5068189;28;20020;-63
2023/04/06 00:30:41;;;;;;;3.47;0.80;;;23.90;99.90;;;;;;5063901;28;20031;-64
2023/04/06 00:33:08;;;;;;;8.13;0.90;;;24.20;99.90;;;;;;5061248;28;20028;-64
2023/04/06 00:35:36;;;;;;;6.25;0.70;;;24.40;99.90;;;;;;5061930;28;20033;-64
2023/04/06 00:38:03;;;;;;;3.92;0.60;;;24.60;99.90;;;;;;5065570;28;20123;-65
2023/04/06 00:40:30;;;;;;;4.57;0.60;;;24.60;99.90;;;;;;5071085;28;20392;-64
2023/04/06 00:42:58;;;;;;;3.13;1.35;;;24.90;99.90;;;;;;5064028;28;20024;-63
2023/04/06 00:45:25;;;;;;;3.33;0.50;;;25.00;99.90;;;;;;5070076;28;20047;-64
2023/04/06 00:47:52;;;;;;;3.60;1.02;;;25.10;99.90;;;;;;5065804;28;20094;-65
2023/04/06 00:50:20;;;;;;;6.55;0.90;;;25.30;99.90;;;;;;5069498;28;20068;-63
2023/04/06 00:52:47;;;;;;;6.13;0.73;;;25.40;99.90;;;;;;5065857;28;20388;-64
2023/04/06 00:55:14;;;;;;;7.63;0.60;;;25.50;99.90;;;;;;5062926;28;20115;-64
2023/04/06 00:57:41;;;;;;;6.88;1.38;;;25.70;99.90;;;;;;5067312;28;20028;-63
2023/04/06 01:00:09;;;;;;;3.72;0.75;;;25.50;99.90;;;;;;5065609;28;20037;-65
2023/04/06 01:02:37;;;;;;;2.28;0.90;;;25.30;99.90;;;;;;5063964;28;20538;-63
2023/04/06 01:05:05;;;;;;;4.65;0.80;;;25.20;99.90;;;;;;5066281;28;20055;-64
2023/04/06 01:07:32;;;;;;;4.95;0.65;;;24.90;99.90;;;;;;5068457;28;20036;-64
2023/04/06 01:09:59;;;;;;;7.00;1.00;;;24.50;99.90;;;;;;5061738;28;20027;-62
2023/04/06 01:12:30;;;;;;;3.38;0.80;;;24.20;99.90;;;;;;5066971;28;20052;-67
2023/04/06 01:14:58;;;;;;;5.00;1.42;;;23.10;99.90;;;;;;5063718;28;20019;-67
2023/04/06 01:17:25;;;;;;;9.73;2.00;;;21.90;99.90;;;;;;5073915;28;20376;-68
2023/04/06 01:19:53;;;;;;;9.68;2.40;;;21.20;99.90;;;;;;5062306;28;20063;-67
2023/04/06 01:22:20;;;;;;;3.92;1.02;;;20.40;99.90;;;;;;5064889;28;20070;-65
2023/04/06 01:24:48;;;;;;;15.10;2.67;;;19.40;99.90;;;;;;5068724;28;20051;-64
2023/04/06 01:27:15;;;;;;;6.85;1.58;;;18.80;99.90;;;;;;5075894;28;20027;-64
2023/04/06 01:29:43;;;;;;;5.80;1.88;;;18.50;99.90;;;;;;5072959;28;20040;-64
2023/04/06 01:32:10;;;;;;;5.50;2.30;;;18.20;99.90;;;;;;5057304;28;20020;-63
2023/04/06 01:34:37;;;;;;;4.60;1.40;;;18.00;99.90;;;;;;5066979;28;20020;-64
2023/04/06 01:37:05;;;;;;;6.50;1.48;;;17.80;99.90;;;;;;5066251;28;20048;-62
2023/04/06 01:39:32;;;;;;;5.30;1.30;;;17.60;99.90;;;;;;5055445;28;20048;-61
2023/04/06 01:41:59;;;;;;;3.38;1.10;;;17.50;99.90;;;;;;5062210;28;20032;-62
2023/04/06 01:44:27;;;;;;;4.22;1.50;;;17.40;99.90;;;;;;5062878;28;20021;-66
2023/04/06 01:46:55;;;;;;;3.25;1.10;;;17.30;99.90;;;;;;5065053;28;20052;-64
2023/04/06 01:49:22;;;;;;;4.43;1.30;;;17.30;99.90;;;;;;5061798;28;20020;-65
2023/04/06 01:51:50;;;;;;;3.58;1.35;;;17.20;99.90;;;;;;5066982;28;20024;-65
2023/04/06 01:54:17;;;;;;;3.70;1.20;;;17.30;99.90;;;;;;5061339;28;20024;-65
2023/04/06 01:56:45;;;;;;;4.10;1.40;;;17.30;99.90;;;;;;5060876;28;20031;-65
2023/04/06 01:59:12;;;;;;;5.32;1.60;;;17.40;99.90;;;;;;5050876;28;20020;-65
2023/04/06 02:01:40;;;;;;;4.35;1.55;;;17.50;99.90;;;;;;5060017;28;20118;-65
2023/04/06 02:04:07;;;;;;;5.32;1.73;;;17.60;99.90;;;;;;5057358;28;20032;-65
2023/04/06 02:06:35;;;;;;;7.13;2.25;;;17.70;99.90;;;;;;5055147;28;20102;-66
2023/04/06 02:09:02;;;;;;;3.53;1.90;;;17.90;99.90;;;;;;5066677;28;20023;-63
2023/04/06 02:11:30;;;;;;;5.60;1.90;;;18.10;99.90;;;;;;5059359;28;20033;-68
2023/04/06 02:14:00;;;;;;;4.03;1.77;;;18.20;99.90;;;;;;5067139;28;20078;-66
2023/04/06 02:16:27;;;;;;;3.08;1.67;;;18.40;99.90;;;;;;5065781;28;20114;-65
2023/04/06 02:18:55;;;;;;;6.13;3.35;;;18.70;99.90;;;;;;5063343;28;20057;-66
2023/04/06 02:21:22;;;;;;;8.27;4.28;;;18.90;99.90;;;;;;5064106;28;20033;-67
2023/04/06 02:23:50;;;;;;;11.95;6.32;;;19.00;99.90;;;;;;5058162;28;20021;-65
2023/04/06 02:26:18;;;;;;;13.07;7.60;;;19.20;99.90;;;;;;5047755;28;20127;-66
2023/04/06 02:28:45;;;;;;;8.75;5.43;;;19.30;99.90;;;;;;5062770;28;20033;-66
2023/04/06 02:31:14;;;;;;;8.60;4.18;;;19.40;99.90;;;;;;5066601;28;20055;-66
2023/04/06 02:33:42;;;;;;;10.00;4.40;;;19.40;99.90;;;;;;5048467;28;20028;-66
2023/04/06 02:36:09;;;;;;;3.72;2.00;;;19.50;99.90;;;;;;5059521;28;20425;-65
2023/04/06 02:38:37;;;;;;;2.28;1.10;;;19.60;99.90;;;;;;5076958;28;20102;-66
2023/04/06 02:41:04;;;;;;;4.75;1.38;;;19.70;99.90;;;;;;5057229;28;20029;-66
2023/04/06 02:43:32;;;;;;;1.73;1.15;;;19.80;99.90;;;;;;5061716;28;20024;-64
2023/04/06 02:46:00;;;;;;;3.90;1.00;;;19.80;99.90;;;;;;5062046;28;20386;-65
2023/04/06 02:48:27;;;;;;;3.30;0.80;;;19.90;99.90;;;;;;5056509;28;20108;-66
2023/04/06 02:50:55;;;;;;;4.00;1.30;;;19.80;99.90;;;;;;5063504;28;20043;-66
2023/04/06 02:53:23;;;;;;;1.30;0.88;;;19.90;99.90;;;;;;5065411;28;20028;-65
2023/04/06 02:55:50;;;;;;;2.35;1.17;;;19.90;99.90;;;;;;5066581;28;20020;-65
2023/04/06 02:58:17;;;;;;;2.95;1.20;;;20.00;99.90;;;;;;5066645;28;20085;-65
2023/04/06 03:00:45;;;;;;;3.92;1.25;;;20.20;99.90;;;;;;5085382;28;20035;-64
2023/04/06 03:03:12;;;;;;;4.22;0.90;;;20.30;99.90;;;;;;5072191;28;20517;-66
2023/04/06 03:05:40;;;;;;;2.60;1.00;;;20.40;99.90;;;;;;5061355;28;20129;-63
2023/04/06 03:08:07;;;;;;;3.90;0.80;;;20.60;99.90;;;;;;5055515;28;20028;-62
2023/04/06 03:10:35;;;;;;;3.45;1.20;;;20.70;99.90;;;;;;5059055;28;20029;-62
2023/04/06 03:13:02;;;;;;;4.50;0.73;;;20.80;99.90;;;;;;5062687;28;20020;-61
2023/04/06 03:15:30;;;;;;;4.68;1.02;;;20.90;99.90;;;;;;5071795;28;20029;-63
2023/04/06 03:17:58;;;;;;;4.05;0.93;;;21.10;99.90;;;;;;5062076;28;20107;-61
2023/04/06 03:20:26;;;;;;;3.30;0.95;;;21.20;99.90;;;;;;5066560;28;20031;-62
2023/04/06 03:22:53;;;;;;;4.05;0.95;;;21.30;99.90;;;;;;5081420;28;20065;-62
2023/04/06 03:25:20;;;;;;;2.28;0.65;;;21.40;99.90;;;;;;5068696;28;20034;-64
2023/04/06 03:27:48;;;;;;;2.67;0.88;;;21.50;99.90;;;;;;5061939;28;20075;-62
2023/04/06 03:30:18;;;;;;;3.33;1.33;;;21.40;99.90;;;;;;5067050;28;20032;-61
2023/04/06 03:32:45;;;;;;;4.13;0.70;;;21.50;99.90;;;;;;5064099;28;20024;-61
2023/04/06 03:35:13;;;;;;;4.05;1.00;;;21.50;99.90;;;;;;5064461;28;20059;-61
2023/04/06 03:37:41;;;;;;;5.60;1.08;;;21.50;99.90;;;;;;5068993;28;20020;-61
2023/04/06 03:40:08;;;;;;;2.78;0.90;;;21.40;99.90;;;;;;5062114;28;20056;-62
2023/04/06 03:42:36;;;;;;;4.25;1.00;;;21.50;99.90;;;;;;5070100;28;20017;-61
2023/04/06 03:45:04;;;;;;;3.67;1.10;;;21.40;99.90;;;;;;5058337;28;20056;-62
2023/04/06 03:47:31;;;;;;;1.55;0.68;;;21.40;99.90;;;;;;5071193;28;20041;-62
2023/04/06 03:49:59;;;;;;;2.90;0.80;;;21.40;99.90;;;;;;5067199;28;20099;-62
2023/04/06 03:52:26;;;;;;;2.80;0.90;;;21.40;99.90;;;;;;5072994;28;20516;-62
2023/04/06 03:54:54;;;;;;;3.22;1.00;;;21.40;99.90;;;;;;5067155;28;20028;-61
2023/04/06 03:57:21;;;;;;;1.83;0.90;;;21.50;99.90;;;;;;5070202;28;20040;-63
2023/04/06 03:59:49;;;;;;;2.60;0.85;;;21.60;99.90;;;;;;5069916;28;20035;-62
2023/04/06 04:02:16;;;;;;;4.57;1.08;;;21.70;99.90;;;;;;5070163;28;20755;-61
2023/04/06 04:04:44;;;;;;;4.00;1.33;;;21.90;99.90;;;;;;5063302;28;20469;-62
2023/04/06 04:07:11;;;;;;;3.10;1.02;;;21.90;99.90;;;;;;5068698;28;20078;-61
2023/04/06 04:09:39;;;;;;;3.33;0.90;;;22.00;99.90;;;;;;5061072;28;20036;-62
2023/04/06 04:12:07;;;;;;;1.40;0.60;;;22.00;99.90;;;;;;5078478;28;20070;-61
2023/04/06 04:14:34;;;;;;;2.70;1.13;;;22.10;99.90;;;;;;5062800;28;20048;-61
2023/04/06 04:17:01;;;;;;;3.85;0.60;;;22.20;99.90;;;;;;5058790;28;20020;-61
2023/04/06 04:19:29;;;;;;;2.13;1.17;;;22.40;99.90;;;;;;5053255;28;20051;-61
2023/04/06 04:21:56;;;;;;;7.30;0.85;;;22.60;99.90;;;;;;5079774;28;20426;-61
2023/04/06 04:24:24;;;;;;;1.33;0.55;;;22.70;99.90;;;;;;5072033;28;20025;-61
2023/04/06 04:26:51;;;;;;;3.83;0.80;;;22.80;99.90;;;;;;5084927;28;20024;-61
2023/04/06 04:29:21;;;;;;;4.65;1.00;;;22.90;99.90;;;;;;5077942;28;20362;-61
2023/04/06 04:31:49;;;;;;;5.40;0.95;;;22.90;99.90;;;;;;5086487;28;20036;-61
2023/04/06 04:34:16;;;;;;;3.22;1.05;;;22.80;99.90;;;;;;5073805;28;20029;-61
2023/04/06 04:36:44;;;;;;;0.95;0.60;;;22.80;99.90;;;;;;5056209;28;20082;-61
2023/04/06 04:39:11;;;;;;;3.65;0.70;;;22.80;99.90;;;;;;5082859;28;20059;-61
2023/04/06 04:41:39;;;;;;;3.80;0.82;;;22.80;99.90;;;;;;5079358;28;20038;-61
2023/04/06 04:44:07;;;;;;;2.33;0.40;;;22.80;99.90;;;;;;5071800;28;20037;-61
2023/04/06 04:46:34;;;;;;;3.55;0.82;;;22.70;99.90;;;;;;5060883;28;20040;-61
2023/04/06 04:49:02;;;;;;;2.70;0.73;;;22.70;99.90;;;;;;5075028;28;20086;-62
2023/04/06 04:51:31;;;;;;;0.50;0.40;;;22.60;99.90;;;;;;5074043;28;20040;-61
2023/04/06 04:53:58;;;;;;;1.75;0.65;;;22.40;99.90;;;;;;5084156;28;20024;-62
2023/04/06 04:56:27;;;;;;;3.65;0.80;;;22.30;99.90;;;;;;5064305;28;20761;-62
2023/04/06 04:58:54;;;;;;;3.15;0.52;;;22.30;99.90;;;;;;5075127;28;20027;-62
2023/04/06 05:01:22;;;;;;;2.70;0.55;;;22.20;99.90;;;;;;5061836;28;20020;-64
2023/04/06 05:03:49;;;;;;;3.85;0.60;;;22.20;99.90;;;;;;5061246;28;20393;-62
2023/04/06 05:06:18;;;;;;;1.98;0.80;;;22.20;99.90;;;;;;5053183;28;20041;-63
2023/04/06 05:08:46;;;;;;;4.18;0.70;;;22.30;99.90;;;;;;5068343;28;20036;-62
2023/04/06 05:11:14;;;;;;;4.13;0.80;;;22.30;99.90;;;;;;5058149;28;20032;-62
2023/04/06 05:13:41;;;;;;;2.25;0.60;;;22.20;99.90;;;;;;5061200;28;20367;-63
2023/04/06 05:16:09;;;;;;;2.13;0.70;;;22.20;99.90;;;;;;5072514;28;20040;-62
2023/04/06 05:18:36;;;;;;;1.20;0.50;;;22.10;99.90;;;;;;5064539;28;20108;-62
2023/04/06 05:21:04;;;;;;;0.82;0.50;;;22.10;99.90;;;;;;5067371;28;20044;-62
2023/04/06 05:23:31;;;;;;;2.88;0.95;;;22.10;99.90;;;;;;5074756;28;20067;-63
2023/04/06 05:25:59;;;;;;;2.25;0.65;;;21.90;99.90;;;;;;5062686;28;20033;-63
2023/04/06 05:28:26;;;;;;;1.33;0.47;;;21.90;99.90;;;;;;5084186;28;20485;-63
2023/04/06 05:30:54;;;;;;;3.08;0.70;;;21.90;99.90;;;;;;5074146;28;20139;-62
2023/04/06 05:33:22;;;;;;;2.80;0.60;;;21.90;99.90;;;;;;5083294;28;20032;-64
2023/04/06 05:35:49;;;;;;;1.90;0.60;;;21.90;99.90;;;;;;5077516;28;20032;-63
2023/04/06 05:38:17;;;;;;;2.45;0.70;;;21.90;99.90;;;;;;5085255;28;20519;-62
2023/04/06 05:40:44;;;;;;;3.80;1.63;;;21.90;99.90;;;;;;5066289;28;20025;-62
2023/04/06 05:43:12;;;;;;;2.22;0.68;;;21.90;99.90;;;;;;5075706;28;20027;-63
2023/04/06 05:45:40;;;;;;;3.30;0.50;;;21.90;99.90;;;;;;5077148;28;20115;-62
2023/04/06 05:48:07;;;;;;;4.70;0.57;;;21.80;99.90;;;;;;5067204;28;20024;-62
2023/04/06 05:50:35;;;;;;;4.03;1.27;;;21.80;99.90;;;;;;5059911;28;20040;-62
2023/04/06 05:53:02;;;;;;;3.58;1.05;;;21.80;99.90;;;;;;5074341;28;20403;-62
2023/04/06 05:55:30;;;;;;;4.78;1.10;;;21.80;99.90;;;;;;5078787;28;20024;-62
2023/04/06 05:57:57;;;;;;;2.83;0.85;;;21.80;99.90;;;;;;5081420;28;20397;-62
2023/04/06 06:00:26;;;;;;;3.22;0.80;;;21.80;99.90;;;;;;5070997;28;20134;-62
2023/04/06 06:02:53;;;;;;;3.47;0.88;;;21.70;99.90;;;;;;5084068;28;20021;-63
2023/04/06 06:05:21;;;;;;;3.95;1.38;;;21.70;99.90;;;;;;5077850;28;20491;-62
2023/04/06 06:07:48;;;;;;;4.25;0.80;;;21.60;99.90;;;;;;5076229;28;20064;-63
2023/04/06 06:10:16;;;;;;;2.05;0.93;;;21.60;99.90;;;;;;5072896;28;20036;-62
2023/04/06 06:12:43;;;;;;;2.53;0.93;;;21.50;99.90;;;;;;5055956;28;20020;-61
2023/04/06 06:15:11;;;;;;;1.98;0.80;;;21.50;99.90;;;;;;5081347;28;20077;-62
2023/04/06 06:17:39;;;;;;;7.22;1.05;;;21.50;99.90;;;;;;5080096;28;20020;-62
2023/04/06 06:20:08;;;;;;;3.88;1.17;;;21.40;99.90;;;;;;5073201;28;20037;-62
2023/04/06 06:22:35;;;;;;;1.80;0.50;;;21.30;99.90;;;;;;5070841;28;20025;-62
2023/04/06 06:25:03;;;;;;;2.38;0.70;;;21.30;99.90;;;;;;5068429;28;20024;-62
2023/04/06 06:27:30;;;;;;;1.88;0.90;;;21.20;99.90;;;;;;5064930;28;20032;-62
2023/04/06 06:29:58;;;;;;;3.67;0.80;;;21.20;99.90;;;;;;5064650;28;20028;-62
2023/04/06 06:32:26;;;;;;;3.97;0.77;;;21.10;99.90;;;;;;5078142;28;20024;-62
2023/04/06 06:34:53;;;;;;;2.75;1.02;;;21.00;99.90;;;;;;5077719;28;20031;-63
2023/04/06 06:37:21;;;;;;;4.93;1.30;;;21.00;99.90;;;;;;5066102;28;20021;-62
2023/04/06 06:39:48;;;;;;;2.63;0.80;;;21.00;99.90;;;;;;5061496;28;20081;-62
2023/04/06 06:42:16;;;;;;;4.07;0.90;;;21.00;99.90;;;;;;5066442;28;20046;-62
2023/04/06 06:44:43;;;;;;;1.70;0.80;;;20.90;99.90;;;;;;5079442;28;20271;-62
2023/04/06 06:47:11;;;;;;;6.00;0.98;;;20.90;99.90;;;;;;5062651;28;20463;-64
2023/04/06 06:49:38;;;;;;;6.10;0.93;;;20.90;99.90;;;;;;5068903;28;20056;-62
2023/04/06 06:52:06;;;;;;;5.70;1.58;;;20.80;99.90;;;;;;5081659;28;20027;-62
2023/04/06 06:54:33;;;;;;;3.40;1.30;;;20.70;99.90;;;;;;5075298;28;20027;-62
2023/04/06 06:57:01;;;;;;;5.93;1.17;;;20.80;99.90;;;;;;5083515;28;20020;-62
2023/04/06 06:59:28;;;;;;;2.90;0.90;;;20.70;99.90;;;;;;5076623;28;20500;-63
2023/04/06 07:01:56;;;;;;;3.38;1.17;;;20.70;99.90;;;;;;5070819;28;20043;-62
2023/04/06 07:04:23;;;;;;;3.40;1.13;;;20.70;99.90;;;;;;5088415;28;20069;-62
2023/04/06 07:06:52;;;;;;;4.57;1.20;;;20.60;99.90;;;;;;5073075;28;20121;-61
2023/04/06 07:09:20;;;;;;;4.50;1.02;;;20.60;99.90;;;;;;5083821;28;20052;-62
2023/04/06 07:11:48;;;;;;;5.78;1.20;;;20.50;99.90;;;;;;5084733;28;20036;-62
2023/04/06 07:14:17;;;;;;;4.97;1.50;;;20.50;99.90;;;;;;5070007;28;20021;-62
2023/04/06 07:16:45;;;;;;;2.22;0.95;;;20.40;99.90;;;;;;5060484;28;20036;-62
2023/04/06 07:19:12;;;;;;;3.17;1.23;;;20.30;99.90;;;;;;5065138;28;20048;-62
2023/04/06 07:21:40;;;;;;;3.17;1.15;;;20.30;99.90;;;;;;5063521;28;20024;-62
2023/04/06 07:24:07;;;;;;;2.97;1.25;;;20.30;99.90;;;;;;5064937;28;20401;-61
2023/04/06 07:26:35;;;;;;;3.75;1.38;;;20.20;99.90;;;;;;5072953;28;20021;-62
2023/04/06 07:29:02;;;;;;;5.85;2.08;;;20.10;99.90;;;;;;5061687;28;20074;-61
2023/04/06 07:31:30;;;;;;;5.82;1.23;;;20.00;99.90;;;;;;5057552;28;20037;-61
2023/04/06 07:33:58;;;;;;;4.53;1.08;;;19.90;99.90;;;;;;5054944;28;20021;-62
2023/04/06 07:36:26;;;;;;;3.83;2.03;;;19.80;99.90;;;;;;5065044;28;20028;-62
2023/04/06 07:38:53;;;;;;;4.00;0.90;;;19.70;99.90;;;;;;5061040;28;20017;-62
2023/04/06 07:41:21;;;;;;;3.92;1.00;;;19.60;99.90;;;;;;5065988;28;20029;-62
2023/04/06 07:43:49;;;;;;;3.22;1.30;;;19.50;99.90;;;;;;5078462;28;20122;-61
2023/04/06 07:46:17;;;;;;;3.38;1.27;;;19.40;99.90;;;;;;5069830;28;20125;-61
2023/04/06 07:48:44;;;;;;;3.40;1.13;;;19.30;99.90;;;;;;5054916;28;20032;-61
2023/04/06 07:51:14;;;;;;;3.40;1.17;;;19.20;99.90;;;;;;5056329;28;20042;-61
2023/04/06 07:53:41;;;;;;;3.65;1.15;;;19.20;99.90;;;;;;5064558;28;20051;-61
2023/04/06 07:56:09;;;;;;;5.35;0.90;;;19.10;99.90;;;;;;5056616;28;20641;-61
2023/04/06 07:58:36;;;;;;;2.38;0.90;;;19.00;99.90;;;;;;5061653;28;20111;-60
2023/04/06 08:01:04;;;;;;;4.20;1.60;;;19.00;99.90;;;;;;5074822;28;20089;-60
2023/04/06 08:03:33;;;;;;;7.85;1.60;;;18.90;99.90;;;;;;5074882;28;20485;-61
2023/04/06 08:06:02;;;;;;;7.80;2.08;;;18.90;99.90;;;;;;5062422;28;20044;-60
2023/04/06 08:08:30;;;;;;;3.95;1.88;;;18.80;99.90;;;;;;5071863;28;20412;-61
2023/04/06 08:10:58;;;;;;;4.85;1.30;;;18.80;99.90;;;;;;5070465;28;20036;-61
2023/04/06 08:13:25;;;;;;;3.85;1.70;;;18.80;99.90;;;;;;5066404;28;20024;-61
2023/04/06 08:15:53;;;;;;;5.88;2.70;;;18.70;99.90;;;;;;5077108;28;20107;-61
2023/04/06 08:18:21;;;;;;;7.10;1.70;;;18.60;99.90;;;;;;5074046;28;20072;-61
2023/04/06 08:20:49;;;;;;;8.40;2.17;;;18.60;99.90;;;;;;5074973;28;20020;-61
2023/04/06 08:23:17;;;;;;;8.02;1.80;;;18.50;99.90;;;;;;5072742;28;20035;-61
2023/04/06 08:25:44;;;;;;;4.13;2.22;;;18.50;99.90;;;;;;5066444;28;20075;-63
2023/04/06 08:28:12;;;;;;;6.25;2.20;;;18.40;99.90;;;;;;5055972;28;20029;-61
2023/04/06 08:30:42;;;;;;;9.70;3.22;;;18.40;99.90;;;;;;5070817;28;20028;-60
2023/04/06 08:33:10;;;;;;;5.00;1.90;;;18.30;99.90;;;;;;5063646;28;20024;-59
2023/04/06 08:35:37;;;;;;;7.53;1.90;;;18.30;99.90;;;;;;5068613;28;20035;-59
2023/04/06 08:38:06;;;;;;;5.15;1.40;;;18.20;99.90;;;;;;5055676;28;20020;-59
2023/04/06 08:40:44;;;;;;;9.27;2.33;;;18.20;99.90;;;;;;5064504;28;20029;-60
2023/04/06 08:43:17;;;;;;;7.00;1.77;;;18.10;99.90;;;;;;5051685;28;20028;-61
2023/04/06 08:45:45;;;;;;;12.55;2.28;;;17.90;99.90;;;;;;5056250;28;20112;-60
2023/04/06 08:48:13;;;;;;;4.03;1.48;;;17.80;99.90;;;;;;5061738;28;20498;-60
2023/04/06 08:50:41;;;;;;;10.73;2.03;;;17.70;99.90;;;;;;5067369;28;20047;-60
2023/04/06 08:53:09;;;;;;;5.10;1.85;;;17.60;99.90;;;;;;5063523;28;20078;-61
2023/04/06 08:55:37;;;;;;;8.05;1.75;;;17.60;99.90;;;;;;5068848;28;20169;-61
2023/04/06 08:58:07;;;;;;;6.35;1.30;;;17.50;99.90;;;;;;5065042;28;20032;-61
2023/04/06 09:00:39;;;;;;;7.50;2.03;;;17.40;99.90;;;;;;5066146;28;20554;-60
2023/04/06 09:03:07;;;;;;;4.82;1.25;;;17.30;99.90;;;;;;5062797;28;20025;-60
2023/04/06 09:05:35;;;;;;;4.85;1.50;;;17.20;99.90;;;;;;5059044;28;20053;-61
2023/04/06 09:08:03;;;;;;;5.45;2.03;;;17.10;99.90;;;;;;5051709;28;20025;-60
2023/04/06 09:10:31;;;;;;;5.00;1.23;;;17.00;99.90;;;;;;5081512;28;20510;-61
2023/04/06 09:13:06;;;;;;;5.80;1.60;;;16.90;99.90;;;;;;5070066;28;20133;-60
2023/04/06 09:15:34;;;;;;;9.00;1.60;;;16.80;99.90;;;;;;5063032;28;20025;-61
2023/04/06 09:18:02;;;;;;;6.22;1.40;;;16.70;99.90;;;;;;5068667;28;20020;-60
2023/04/06 09:20:29;;;;;;;4.28;1.25;;;16.60;99.90;;;;;;5067545;28;20044;-60
2023/04/06 09:22:57;;;;;;;3.88;1.30;;;16.60;99.90;;;;;;5085971;28;20550;-60
2023/04/06 09:25:28;;;;;;;5.93;1.55;;;16.50;99.90;;;;;;5065449;28;20025;-59
2023/04/06 09:28:06;;;;;;;8.95;2.00;;;16.50;99.90;;;;;;5056289;28;20043;-60
2023/04/06 09:30:35;;;;;;;5.78;1.98;;;16.50;99.90;;;;;;5068958;28;20404;-60
2023/04/06 09:33:03;;;;;;;6.82;1.83;;;16.40;99.90;;;;;;5062526;28;20029;-60
2023/04/06 09:35:32;;;;;;;6.63;1.42;;;16.40;99.90;;;;;;5066205;28;20524;-60
2023/04/06 09:38:10;;;;;;;6.57;1.63;;;16.30;99.90;;;;;;5069482;28;20121;-62
2023/04/06 09:40:51;;;;;;;7.13;1.60;;;16.30;99.90;;;;;;5082951;28;20047;-60
2023/04/06 09:43:29;;;;;;;6.03;1.83;;;16.30;99.90;;;;;;5054214;28;20074;-60
2023/04/06 09:46:03;;;;;;;5.78;1.80;;;16.20;99.90;;;;;;5080463;28;20028;-60
2023/04/06 09:48:34;;;;;;;5.57;2.63;;;16.10;99.90;;;;;;5068898;28;20029;-61
2023/04/06 09:51:07;;;;;;;11.48;3.10;;;15.90;99.90;;;;;;5080284;28;20055;-60
2023/04/06 09:53:39;;;;;;;8.25;1.73;;;15.70;99.90;;;;;;5067510;28;20107;-60
2023/04/06 09:56:12;;;;;;;11.93;2.60;;;15.60;99.90;;;;;;5051521;28;20101;-60
2023/04/06 09:58:43;;;;;;;7.68;1.92;;;15.40;99.90;;;;;;5070691;28;20020;-60
2023/04/06 10:01:18;;;;;;;6.03;2.00;;;15.30;99.90;;;;;;5067708;28;20024;-61
2023/04/06 10:04:27;;;;;;;7.38;2.20;;;15.30;99.90;;;;;;5073892;28;20108;-60
2023/04/06 10:06:55;;;;;;;7.40;1.90;;;15.20;99.90;;;;;;5014605;28;20522;-62
2023/04/06 10:09:35;;;;;;;9.85;3.08;;;15.20;99.90;;;;;;5015034;28;20029;-60
2023/04/06 10:12:07;;;;;;;6.45;2.40;;;15.20;99.90;;;;;;5019017;28;20109;-60
2023/04/06 10:14:36;;;;;;;7.82;2.38;;;15.20;99.90;;;;;;5024786;28;20060;-61
2023/04/06 10:17:05;;;;;;;8.50;2.50;;;15.20;99.90;;;;;;5020087;28;20112;-60
2023/04/06 10:19:40;;;;;;;9.88;3.15;;;15.20;99.90;;;;;;5015404;28;20030;-61
2023/04/06 10:22:10;;;;;;;5.85;2.70;;;15.10;99.90;;;;;;5010969;28;20030;-62
2023/04/06 10:24:38;;;;;;;8.55;4.07;;;15.10;99.90;;;;;;5021938;28;20656;-60
2023/04/06 10:27:10;;;;;;;11.10;3.70;;;15.00;99.90;;;;;;5024037;28;20037;-61
2023/04/06 10:29:47;;;;;;;9.50;4.28;;;15.00;99.90;;;;;;5022529;28;20030;-60
2023/04/06 10:32:15;;;;;;;10.27;3.80;;;14.90;99.90;;;;;;5021597;28;20034;-61
2023/04/06 10:34:42;;;;;;;7.85;3.15;;;14.80;99.90;;;;;;5013494;28;20045;-61
2023/04/06 10:37:15;;;;;;;10.27;2.88;;;14.70;99.90;;;;;;5042131;28;20029;-61
2023/04/06 10:39:57;;;;;;;8.50;2.90;;;14.70;99.90;;;;;;5017787;28;20125;-61
2023/04/06 10:42:38;;;;;;;7.22;2.38;;;14.70;99.90;;;;;;5018140;28;20025;-65
2023/04/06 10:45:19;;;;;;;7.25;3.25;;;14.60;99.90;;;;;;5029698;28;20092;-61
2023/04/06 10:47:47;;;;;;;11.45;3.10;;;14.60;99.90;;;;;;5038516;28;20033;-61
2023/04/06 10:50:17;;;;;;;12.35;3.60;;;14.70;99.90;;;;;;5038014;28;20465;-61
2023/04/06 10:52:46;;;;;;;10.15;2.95;;;14.80;99.90;;;;;;5010984;28;20036;-61
2023/04/06 10:55:18;;;;;;;10.43;3.10;;;14.80;99.90;;;;;;5015119;28;20025;-61
2023/04/06 10:57:47;;;;;;;10.93;3.05;;;14.80;99.90;;;;;;5015576;28;20048;-61
2023/04/06 11:00:15;;;;;;;8.60;3.20;;;14.80;99.90;;;;;;5026960;28;20033;-61
2023/04/06 11:02:43;;;;;;;5.30;2.70;;;14.80;99.90;;;;;;5010152;28;20055;-61
2023/04/06 11:05:15;;;;;;;10.20;2.85;;;14.70;99.90;;;;;;5033148;28;20442;-61
2023/04/06 11:07:44;;;;;;;8.23;3.00;;;14.60;99.90;;;;;;5069087;28;20039;-61
2023/04/06 11:10:12;;;;;;;10.45;2.97;;;14.60;99.90;;;;;;5081499;28;20497;-61
2023/04/06 11:12:39;;;;;;;8.75;2.60;;;14.70;99.90;;;;;;5056054;28;20400;-61
2023/04/06 11:15:07;;;;;;;7.18;3.08;;;14.70;99.90;;;;;;5058339;28;20031;-60
2023/04/06 11:17:37;;;;;;;6.60;2.53;;;14.70;99.90;;;;;;5067689;28;20086;-60
2023/04/06 11:20:10;;;;;;;6.43;2.40;;;14.60;99.90;;;;;;5049534;28;20381;-60
2023/04/06 11:22:47;;;;;;;6.07;2.40;;;14.50;99.90;;;;;;5058601;28;20025;-61
2023/04/06 11:25:16;;;;;;;7.93;2.08;;;14.40;99.90;;;;;;5054989;28;20070;-61
2023/04/06 11:27:45;;;;;;;5.65;2.92;;;14.30;99.90;;;;;;5059830;28;20028;-61
2023/04/06 11:30:14;;;;;;;7.22;2.53;;;14.40;99.90;;;;;;5055513;28;20110;-61
2023/04/06 11:32:43;;;;;;;4.25;2.17;;;14.40;99.90;;;;;;5061380;28;20020;-61
2023/04/06 11:35:24;;;;;;;6.10;2.08;;;14.20;99.90;;;;;;5056459;28;20026;-60
2023/04/06 11:37:51;;;;;;;6.22;2.20;;;14.10;99.90;;;;;;5054301;28;20032;-62
2023/04/06 11:40:23;;;;;;;8.77;1.92;;;14.00;99.90;;;;;;5058134;28;20107;-63
2023/04/06 11:42:57;;;;;;;7.55;2.17;;;13.90;99.90;;;;;;5058527;28;20032;-61
2023/04/06 11:45:25;;;;;;;7.25;2.42;;;13.90;99.90;;;;;;5062609;28;20055;-61
2023/04/06 11:48:01;;;;;;;3.33;1.67;;;13.80;99.90;;;;;;5059956;28;20025;-62
2023/04/06 11:50:34;;;;;;;8.45;2.10;;;13.70;99.90;;;;;;5065281;28;20040;-61
2023/04/06 11:53:03;;;;;;;8.57;2.00;;;13.70;99.90;;;;;;5056076;28;20074;-61
2023/04/06 11:55:38;;;;;;;7.82;2.97;;;13.60;99.90;;;;;;5057820;28;20032;-61
2023/04/06 11:58:06;;;;;;;8.55;2.30;;;13.60;99.90;;;;;;5063512;28;20036;-62
2023/04/06 12:00:34;;;;;;;8.40;2.47;;;13.50;99.90;;;;;;5061669;28;20052;-61
2023/04/06 12:03:02;;;;;;;6.57;2.33;;;13.50;99.90;;;;;;5052858;28;20028;-61
2023/04/06 12:05:29;;;;;;;9.95;3.17;;;13.50;99.90;;;;;;5065673;28;20055;-62
2023/04/06 12:07:57;;;;;;;14.40;4.15;;;13.50;99.90;;;;;;5053011;28;20052;-60
2023/04/06 12:10:25;;;;;;;12.32;4.55;;;13.70;99.90;;;;;;5058162;28;20449;-61
2023/04/06 12:12:52;;;;;;;10.63;3.67;;;13.80;99.90;;;;;;5062514;28;20021;-61
2023/04/06 12:15:20;;;;;;;11.15;3.88;;;13.90;99.90;;;;;;5057310;28;20025;-60
2023/04/06 12:17:48;;;;;;;9.20;3.13;;;13.80;99.90;;;;;;5060079;28;20029;-60
2023/04/06 12:20:15;;;;;;;10.93;3.28;;;13.70;99.90;;;;;;5059176;28;21461;-59
2023/04/06 12:22:43;;;;;;;9.25;3.78;;;13.70;99.90;;;;;;5063929;28;20035;-60
2023/04/06 12:25:10;;;;;;;8.35;3.22;;;13.60;99.90;;;;;;5062996;28;20021;-60
2023/04/06 12:27:38;;;;;;;6.85;3.00;;;13.60;99.90;;;;;;5063895;28;20029;-59
2023/04/06 12:30:06;;;;;;;6.13;2.53;;;13.50;99.90;;;;;;5061293;28;20556;-59
2023/04/06 12:32:34;;;;;;;8.20;2.35;;;13.40;99.90;;;;;;5070781;28;20127;-60
2023/04/06 12:35:01;;;;;;;7.03;2.53;;;13.40;99.90;;;;;;5067987;28;20500;-60
2023/04/06 12:37:29;;;;;;;7.82;2.92;;;13.40;99.90;;;;;;5061895;28;20035;-60
2023/04/06 12:39:56;;;;;;;14.68;4.50;;;13.40;99.90;;;;;;5060742;28;20056;-61
2023/04/06 12:42:24;;;;;;;8.15;2.88;;;13.40;99.90;;;;;;5060486;28;20078;-60
2023/04/06 12:44:52;;;;;;;6.38;2.78;;;13.40;99.90;;;;;;5059522;28;20486;-63
2023/04/06 12:47:19;;;;;;;4.22;2.67;;;13.40;99.90;;;;;;5062973;28;20025;-60
2023/04/06 12:49:47;;;;;;;7.32;3.22;;;13.40;99.90;;;;;;5067998;28;20119;-60
2023/04/06 12:52:14;;;;;;;10.32;3.70;;;13.40;99.90;;;;;;5059325;28;20071;-60